sensor_id;sensor_type;location;lat;lon;timestamp;temperature;humidity
44069;DHT22;29738;51.234;5.484;2023-07-02T12:05:27;21.20;99.90
44069;DHT22;29738;51.234;5.484;2023-07-02T12:07:54;21.10;99.90
44069;DHT22;29738;51.234;5.484;2023-07-02T12:10:20;21.10;99.90
44069;DHT22;29738;51.234;5.484;2023-07-02T12:12:45;21.20;99.90
44069;DHT22;29738;51.234;5.484;2023-07-02T12:15:11;21.40;99.90
44069;DHT22;29738;51.234;5.484;2023-07-02T12:17:37;21.60;99.90
44069;DHT22;29738;51.234;5.484;2023-07-02T12:20:02;21.50;99.90
44069;DHT22;29738;51.234;5.484;2023-07-02T12:22:28;21.20;99.90
44069;DHT22;29738;51.234;5.484;2023-07-02T12:24:54;21.00;99.90
44069;DHT22;29738;51.234;5.484;2023-07-02T12:27:24;21.10;99.90
44069;DHT22;29738;51.234;5.484;2023-07-02T12:29:50;20.90;99.90
44069;DHT22;29738;51.234;5.484;2023-07-02T12:32:16;20.80;99.90
44069;DHT22;29738;51.234;5.484;2023-07-02T12:34:42;21.10;99.90
44069;DHT22;29738;51.234;5.484;2023-07-02T12:37:07;21.20;99.90
44069;DHT22;29738;51.234;5.484;2023-07-02T12:39:33;21.20;99.90
44069;DHT22;29738;51.234;5.484;2023-07-02T12:42:00;21.10;99.90
44069;DHT22;29738;51.234;5.484;2023-07-02T12:57:26;21.20;99.90
44069;DHT22;29738;51.234;5.484;2023-07-02T12:59:53;21.10;99.90
44069;DHT22;29738;51.234;5.484;2023-07-02T13:02:18;21.10;99.90
44069;DHT22;29738;51.234;5.484;2023-07-02T13:04:44;21.10;99.90
44069;DHT22;29738;51.234;5.484;2023-07-02T13:07:12;21.20;99.90
44069;DHT22;29738;51.234;5.484;2023-07-02T19:52:59;20.10;99.90
44069;DHT22;29738;51.234;5.484;2023-07-02T19:55:26;20.00;99.90
44069;DHT22;29738;51.234;5.484;2023-07-02T19:57:51;19.80;99.90
44069;DHT22;29738;51.234;5.484;2023-07-02T20:00:17;19.80;99.90
44069;DHT22;29738;51.234;5.484;2023-07-02T20:02:43;19.70;99.90
44069;DHT22;29738;51.234;5.484;2023-07-02T20:05:09;19.60;99.90
44069;DHT22;29738;51.234;5.484;2023-07-02T20:07:35;19.70;99.90
44069;DHT22;29738;51.234;5.484;2023-07-02T20:10:02;19.70;99.90
44069;DHT22;29738;51.234;5.484;2023-07-02T20:12:28;19.50;99.90
44069;DHT22;29738;51.234;5.484;2023-07-02T20:14:58;19.40;99.90
44069;DHT22;29738;51.234;5.484;2023-07-02T20:17:25;19.50;99.90
44069;DHT22;29738;51.234;5.484;2023-07-02T20:19:54;19.30;99.90
44069;DHT22;29738;51.234;5.484;2023-07-02T20:27:41;19.10;99.90
44069;DHT22;29738;51.234;5.484;2023-07-02T20:30:07;19.10;99.90
44069;DHT22;29738;51.234;5.484;2023-07-02T20:32:33;19.00;99.90
44069;DHT22;29738;51.234;5.484;2023-07-02T20:35:00;18.80;99.90
44069;DHT22;29738;51.234;5.484;2023-07-02T20:37:32;18.70;99.90
44069;DHT22;29738;51.234;5.484;2023-07-02T20:39:59;18.50;99.90
44069;DHT22;29738;51.234;5.484;2023-07-02T20:42:36;18.40;99.90
44069;DHT22;29738;51.234;5.484;2023-07-02T20:45:03;18.40;99.90
44069;DHT22;29738;51.234;5.484;2023-07-02T20:47:33;18.50;99.90
44069;DHT22;29738;51.234;5.484;2023-07-02T20:50:12;18.40;99.90
44069;DHT22;29738;51.234;5.484;2023-07-02T20:52:41;18.30;99.90
44069;DHT22;29738;51.234;5.484;2023-07-02T20:55:07;18.20;99.90
44069;DHT22;29738;51.234;5.484;2023-07-02T20:57:33;18.20;99.90
44069;DHT22;29738;51.234;5.484;2023-07-02T20:59:59;18.10;99.90
44069;DHT22;29738;51.234;5.484;2023-07-02T21:02:25;18.00;99.90
44069;DHT22;29738;51.234;5.484;2023-07-02T21:04:52;17.90;99.90
44069;DHT22;29738;51.234;5.484;2023-07-02T21:07:24;17.80;99.90
44069;DHT22;29738;51.234;5.484;2023-07-02T21:09:53;17.90;99.90
44069;DHT22;29738;51.234;5.484;2023-07-02T21:12:18;17.80;99.90
44069;DHT22;29738;51.234;5.484;2023-07-02T21:14:48;17.70;99.90
44069;DHT22;29738;51.234;5.484;2023-07-02T21:17:14;17.70;99.90
44069;DHT22;29738;51.234;5.484;2023-07-02T21:19:40;17.60;99.90
44069;DHT22;29738;51.234;5.484;2023-07-02T21:22:05;17.60;99.90
44069;DHT22;29738;51.234;5.484;2023-07-02T21:24:31;17.50;99.90
44069;DHT22;29738;51.234;5.484;2023-07-02T21:26:57;17.50;99.90
44069;DHT22;29738;51.234;5.484;2023-07-02T21:29:23;17.50;99.90
44069;DHT22;29738;51.234;5.484;2023-07-02T21:31:52;17.50;99.90
44069;DHT22;29738;51.234;5.484;2023-07-02T21:34:18;17.50;99.90
44069;DHT22;29738;51.234;5.484;2023-07-02T21:36:44;17.50;99.90
44069;DHT22;29738;51.234;5.484;2023-07-02T21:39:11;17.20;99.90
44069;DHT22;29738;51.234;5.484;2023-07-02T21:41:38;17.20;99.90
44069;DHT22;29738;51.234;5.484;2023-07-02T21:44:05;17.30;99.90
44069;DHT22;29738;51.234;5.484;2023-07-02T21:46:31;17.30;99.90
44069;DHT22;29738;51.234;5.484;2023-07-02T21:48:57;17.30;99.90
44069;DHT22;29738;51.234;5.484;2023-07-02T21:51:24;17.20;99.90
44069;DHT22;29738;51.234;5.484;2023-07-02T21:53:50;17.20;99.90
44069;DHT22;29738;51.234;5.484;2023-07-02T21:56:17;17.10;99.90
44069;DHT22;29738;51.234;5.484;2023-07-02T21:58:43;17.00;99.90
44069;DHT22;29738;51.234;5.484;2023-07-02T22:01:13;16.90;99.90
44069;DHT22;29738;51.234;5.484;2023-07-02T22:03:39;17.00;99.90
44069;DHT22;29738;51.234;5.484;2023-07-02T22:06:05;16.80;99.90
44069;DHT22;29738;51.234;5.484;2023-07-02T22:08:31;16.80;99.90
44069;DHT22;29738;51.234;5.484;2023-07-02T22:10:56;16.90;99.90
44069;DHT22;29738;51.234;5.484;2023-07-02T22:13:22;17.00;99.90
44069;DHT22;29738;51.234;5.484;2023-07-02T22:15:48;17.00;99.90
44069;DHT22;29738;51.234;5.484;2023-07-02T22:18:14;17.00;99.90
44069;DHT22;29738;51.234;5.484;2023-07-02T22:20:39;16.90;99.90
44069;DHT22;29738;51.234;5.484;2023-07-02T22:23:06;16.80;99.90
44069;DHT22;29738;51.234;5.484;2023-07-02T22:25:32;16.70;99.90
44069;DHT22;29738;51.234;5.484;2023-07-02T22:27:58;16.80;99.90
44069;DHT22;29738;51.234;5.484;2023-07-02T22:30:24;16.70;99.90
44069;DHT22;29738;51.234;5.484;2023-07-02T22:32:50;16.60;99.90
44069;DHT22;29738;51.234;5.484;2023-07-02T22:35:16;16.50;99.90
44069;DHT22;29738;51.234;5.484;2023-07-02T22:37:41;16.50;99.90
44069;DHT22;29738;51.234;5.484;2023-07-02T22:40:08;16.50;99.90
44069;DHT22;29738;51.234;5.484;2023-07-02T22:42:35;16.60;99.90
44069;DHT22;29738;51.234;5.484;2023-07-02T22:45:01;16.50;99.90
44069;DHT22;29738;51.234;5.484;2023-07-02T22:47:26;16.60;99.90
44069;DHT22;29738;51.234;5.484;2023-07-02T22:49:52;16.70;99.90
44069;DHT22;29738;51.234;5.484;2023-07-02T22:52:18;16.60;99.90
44069;DHT22;29738;51.234;5.484;2023-07-02T22:54:44;16.60;99.90
44069;DHT22;29738;51.234;5.484;2023-07-02T22:57:09;16.50;99.90
44069;DHT22;29738;51.234;5.484;2023-07-02T22:59:36;16.30;99.90
44069;DHT22;29738;51.234;5.484;2023-07-02T23:02:02;16.40;99.90
44069;DHT22;29738;51.234;5.484;2023-07-02T23:04:28;16.50;99.90
44069;DHT22;29738;51.234;5.484;2023-07-02T23:06:53;16.40;99.90
44069;DHT22;29738;51.234;5.484;2023-07-02T23:09:19;16.30;99.90
44069;DHT22;29738;51.234;5.484;2023-07-02T23:11:46;16.30;99.90
44069;DHT22;29738;51.234;5.484;2023-07-02T23:14:14;16.30;99.90
44069;DHT22;29738;51.234;5.484;2023-07-02T23:16:43;16.30;99.90
44069;DHT22;29738;51.234;5.484;2023-07-02T23:19:09;16.20;99.90
44069;DHT22;29738;51.234;5.484;2023-07-02T23:21:36;16.20;99.90
44069;DHT22;29738;51.234;5.484;2023-07-02T23:24:01;16.20;99.90
44069;DHT22;29738;51.234;5.484;2023-07-02T23:26:28;16.10;99.90
44069;DHT22;29738;51.234;5.484;2023-07-02T23:39:40;16.00;99.90
44069;DHT22;29738;51.234;5.484;2023-07-02T23:42:08;15.90;99.90
44069;DHT22;29738;51.234;5.484;2023-07-02T23:44:33;15.90;99.90
44069;DHT22;29738;51.234;5.484;2023-07-02T23:46:59;15.80;99.90
44069;DHT22;29738;51.234;5.484;2023-07-02T23:49:25;15.80;99.90
44069;DHT22;29738;51.234;5.484;2023-07-02T23:51:50;15.80;99.90
44069;DHT22;29738;51.234;5.484;2023-07-02T23:54:16;15.90;99.90
44069;DHT22;29738;51.234;5.484;2023-07-02T23:56:42;15.80;99.90
44069;DHT22;29738;51.234;5.484;2023-07-02T23:59:09;15.90;99.90
